Погода METAR - Новосибирск (Толмачево)

Код аэропорта ICAO:
Кемерово, Абакан, Красноярск, Новосибирск
Код METAR: UNNT 232200Z VRB01MPS 0450 0200N R07/P2000D FZFG BKN029 M09/M10 Q1029 R07/190055 R16/190065 NOSIG RMK QFE761/1015
TAF UNNT 232000Z 2321/2421 02003MPS 6000 -SN OVC025 
     TEMPO 2321/2405 0150 FZFG BKN001 OVC016 
     TEMPO 2405/2407 BKN011 
     FM240700 06003G08MPS 9999 -SN BKN016
       

Погода - Сейчас

Время: 2020-02-24 05:00, местное
Направление ветра: Переменный
Скорость ветра: 1 м/с
Видимость:
Температура: 0°C
Точка росы: 0°C
Атмосферное давление:

Архив погоды

Время, местное Направление Скорость, м/с Температура, °C Точка росы, °C Давление, гПа
2020-02-24 05:00 Переменный 1 0 0
2020-02-22 22:00 Переменный 1 -4 -6 1021
2020-02-22 04:00 ЗЮЗ (240°) 3 -6 -7 1017
2020-02-20 16:30 ЮЮЗ (200°) 6 -2 -4 1021
2020-02-19 01:00 Ю (190°) 7 -8 -11 1022
2020-02-18 08:00 Ю (170°) 4 -8 -11 1026
2020-02-17 05:00 ЮЮВ (150°) 6 -6 -9 1030
2020-02-15 21:30 Переменный 1 0 450
2020-02-15 14:30 Переменный 1 -6 -8 1035
2020-02-14 14:00 Ю (190°) 4 -5 -10 1034
2020-02-11 17:00 ЮЮВ (160°) 3 -15 -19 1027
2020-02-11 13:00 ЮЮВ (150°) 3 -20 -22 1025
2020-02-10 15:00 З (280°) 4 -15 -19 1014
2020-02-10 04:00 С (350°) 7 -8 -10 999
2020-02-07 13:30 ЮЮЗ (200°) 7 -3 -5 1018
2020-02-07 08:30 Ю (190°) 7 -5 -7 1018
2020-02-06 21:30 ЮЗ (210°) 8 0 -2 1011
2020-02-05 19:30 ЮЮВ (160°) 5 -1 -4 1021
2020-02-05 10:00 Ю (190°) 4 -6 -8 1021
2020-02-03 07:00 Переменный 1 -15 -20 1018
2020-01-30 16:00 Ю (170°) 4 -21 -25 1038
2020-01-28 02:00 ЮЮЗ (200°) 9 -2 -5 1006
2020-01-25 23:30 Ю (180°) 3 -7 -10 1011
2020-01-25 17:30 ЮЗ (230°) 12 -2 -4 1005
2020-01-25 14:00 ЮЗ (220°) 9 0 -2 1000
2020-01-24 19:00 ЮЮЗ (200°) 8 0 -1 1006
2020-01-24 06:30 ЮЮЗ (200°) 10 -1 -3 1007
2020-01-23 13:30 Ю (170°) 10 -5 -8 1012
2020-01-23 01:30 Ю (180°) 5 -7 -9 1015
2020-01-21 02:00 Ю (190°) 2 -21 -23 1023
2020-01-18 00:00 ЮЗ (210°) 10 -3 -4 1004
2020-01-15 21:30 Ю (180°) 6 -5 -8 1018
2020-01-10 06:00 Ю (180°) 3 -17 -19 1032
2020-01-09 12:00 Ю (180°) 3 -14 -16 1032
2020-01-09 03:00 Ю (190°) 3 -12 -14 1030
2020-01-08 14:30 Ю (170°) 4 -10 -13 1030
2020-01-04 08:30 ЮЗ (230°) 4 -8 -11 1021
2020-01-03 06:30 Ю (190°) 8 -2 -6 1015
2020-01-03 05:00 ЮЮЗ (200°) 8 -2 -6 1015
2020-01-01 14:00 Ю (180°) 7 -6 -10 1015
2019-12-29 18:30 Штиль 0 -18 -20 1021
2019-12-25 07:00 Ю (170°) 5 0 2000
2019-12-25 00:30 ЮЗ (230°) 4 -11 -14 1022
2019-12-23 05:00 ЮЮВ (150°) 4 -4 -6 1016
2019-12-22 09:00 ЮЮВ (160°) 3 -5 -6 1010
2019-12-21 18:00 ЮВ (120°) 7 0 0
2019-12-21 16:00 ЮВ (130°) 7 -2 -4 1007
2019-12-20 01:30 ЮВ (130°) 3 -6 -8 1016